sensor_id;sensor_type;location;lat;lon;timestamp;P1;durP1;ratioP1;P2;durP2;ratioP2
25249;SDS011;13201;51.148;13.738;2022-11-18T00:01:03;10.18;;;6.00;;
25249;SDS011;13201;51.148;13.738;2022-11-18T00:03:32;10.70;;;6.30;;
25249;SDS011;13201;51.148;13.738;2022-11-18T00:05:58;14.83;;;6.30;;
25249;SDS011;13201;51.148;13.738;2022-11-18T00:08:24;15.60;;;6.70;;
25249;SDS011;13201;51.148;13.738;2022-11-18T00:10:50;14.30;;;6.57;;
25249;SDS011;13201;51.148;13.738;2022-11-18T00:13:16;11.75;;;6.03;;
25249;SDS011;13201;51.148;13.738;2022-11-18T00:16:11;13.88;;;6.50;;
25249;SDS011;13201;51.148;13.738;2022-11-18T00:18:37;12.77;;;6.30;;
25249;SDS011;13201;51.148;13.738;2022-11-18T00:21:04;12.60;;;6.22;;
25249;SDS011;13201;51.148;13.738;2022-11-18T00:23:35;12.32;;;6.50;;
25249;SDS011;13201;51.148;13.738;2022-11-18T00:26:01;15.02;;;6.53;;
25249;SDS011;13201;51.148;13.738;2022-11-18T00:28:29;13.25;;;6.32;;
25249;SDS011;13201;51.148;13.738;2022-11-18T00:33:39;11.70;;;5.60;;
25249;SDS011;13201;51.148;13.738;2022-11-18T00:36:07;11.33;;;6.23;;
25249;SDS011;13201;51.148;13.738;2022-11-18T00:38:34;13.48;;;6.88;;
25249;SDS011;13201;51.148;13.738;2022-11-18T00:41:00;12.88;;;6.72;;
25249;SDS011;13201;51.148;13.738;2022-11-18T00:43:30;12.48;;;6.38;;
25249;SDS011;13201;51.148;13.738;2022-11-18T00:45:56;12.95;;;6.72;;
25249;SDS011;13201;51.148;13.738;2022-11-18T00:48:22;12.98;;;6.90;;
25249;SDS011;13201;51.148;13.738;2022-11-18T00:50:48;13.18;;;6.50;;
25249;SDS011;13201;51.148;13.738;2022-11-18T00:53:22;12.88;;;6.72;;
25249;SDS011;13201;51.148;13.738;2022-11-18T00:55:49;12.35;;;6.50;;
25249;SDS011;13201;51.148;13.738;2022-11-18T00:58:15;15.35;;;6.78;;
25249;SDS011;13201;51.148;13.738;2022-11-18T01:00:42;14.15;;;7.07;;
25249;SDS011;13201;51.148;13.738;2022-11-18T01:03:10;13.88;;;6.68;;
25249;SDS011;13201;51.148;13.738;2022-11-18T01:05:37;13.02;;;6.63;;
25249;SDS011;13201;51.148;13.738;2022-11-18T01:31:17;15.63;;;7.18;;
25249;SDS011;13201;51.148;13.738;2022-11-18T01:33:43;14.68;;;6.85;;
25249;SDS011;13201;51.148;13.738;2022-11-18T01:36:14;14.45;;;6.82;;
25249;SDS011;13201;51.148;13.738;2022-11-18T01:38:39;14.57;;;6.63;;
25249;SDS011;13201;51.148;13.738;2022-11-18T01:41:05;15.77;;;6.40;;
25249;SDS011;13201;51.148;13.738;2022-11-18T01:46:50;14.05;;;6.22;;
25249;SDS011;13201;51.148;13.738;2022-11-18T01:49:15;14.38;;;6.32;;
25249;SDS011;13201;51.148;13.738;2022-11-18T01:51:47;15.25;;;7.00;;
25249;SDS011;13201;51.148;13.738;2022-11-18T01:54:23;11.50;;;6.10;;
25249;SDS011;13201;51.148;13.738;2022-11-18T01:56:55;9.82;;;5.82;;
25249;SDS011;13201;51.148;13.738;2022-11-18T01:59:25;12.75;;;6.35;;
25249;SDS011;13201;51.148;13.738;2022-11-18T02:01:55;11.52;;;5.90;;
25249;SDS011;13201;51.148;13.738;2022-11-18T02:04:21;11.35;;;6.10;;
25249;SDS011;13201;51.148;13.738;2022-11-18T02:06:49;12.90;;;6.15;;
25249;SDS011;13201;51.148;13.738;2022-11-18T02:09:16;14.02;;;6.70;;
25249;SDS011;13201;51.148;13.738;2022-11-18T02:11:42;12.52;;;6.32;;
25249;SDS011;13201;51.148;13.738;2022-11-18T02:14:30;12.38;;;5.82;;
25249;SDS011;13201;51.148;13.738;2022-11-18T02:30:09;12.10;;;6.47;;
25249;SDS011;13201;51.148;13.738;2022-11-18T02:32:41;11.82;;;5.90;;
25249;SDS011;13201;51.148;13.738;2022-11-18T02:38:15;14.75;;;6.22;;
25249;SDS011;13201;51.148;13.738;2022-11-18T02:40:43;11.75;;;5.60;;
25249;SDS011;13201;51.148;13.738;2022-11-18T02:45:39;9.68;;;5.15;;
25249;SDS011;13201;51.148;13.738;2022-11-18T02:48:08;11.88;;;5.55;;
25249;SDS011;13201;51.148;13.738;2022-11-18T02:50:36;12.90;;;6.20;;
25249;SDS011;13201;51.148;13.738;2022-11-18T02:53:05;12.60;;;5.78;;
25249;SDS011;13201;51.148;13.738;2022-11-18T02:55:34;13.63;;;6.80;;
25249;SDS011;13201;51.148;13.738;2022-11-18T02:58:02;11.98;;;5.95;;
25249;SDS011;13201;51.148;13.738;2022-11-18T03:00:30;12.38;;;6.50;;
25249;SDS011;13201;51.148;13.738;2022-11-18T03:02:56;13.48;;;6.63;;
25249;SDS011;13201;51.148;13.738;2022-11-18T03:07:52;11.60;;;6.32;;
25249;SDS011;13201;51.148;13.738;2022-11-18T03:10:20;12.52;;;5.90;;
25249;SDS011;13201;51.148;13.738;2022-11-18T03:13:32;10.88;;;6.22;;
25249;SDS011;13201;51.148;13.738;2022-11-18T03:16:13;12.18;;;5.95;;
25249;SDS011;13201;51.148;13.738;2022-11-18T03:18:55;12.23;;;6.63;;
25249;SDS011;13201;51.148;13.738;2022-11-18T03:21:40;12.52;;;6.25;;
25249;SDS011;13201;51.148;13.738;2022-11-18T03:24:24;14.48;;;6.60;;
25249;SDS011;13201;51.148;13.738;2022-11-18T03:27:07;11.48;;;6.03;;
25249;SDS011;13201;51.148;13.738;2022-11-18T03:29:40;14.00;;;7.55;;
25249;SDS011;13201;51.148;13.738;2022-11-18T03:32:13;13.63;;;6.90;;
25249;SDS011;13201;51.148;13.738;2022-11-18T03:34:44;14.02;;;7.38;;
25249;SDS011;13201;51.148;13.738;2022-11-18T03:37:14;15.93;;;7.63;;
25249;SDS011;13201;51.148;13.738;2022-11-18T03:39:44;12.98;;;6.50;;
25249;SDS011;13201;51.148;13.738;2022-11-18T03:42:18;14.02;;;6.97;;
25249;SDS011;13201;51.148;13.738;2022-11-18T03:44:54;14.27;;;6.65;;
25249;SDS011;13201;51.148;13.738;2022-11-18T03:47:40;15.77;;;7.35;;
25249;SDS011;13201;51.148;13.738;2022-11-18T03:52:59;13.82;;;7.28;;
25249;SDS011;13201;51.148;13.738;2022-11-18T03:58:06;12.05;;;6.40;;
25249;SDS011;13201;51.148;13.738;2022-11-18T04:01:12;11.73;;;6.13;;
25249;SDS011;13201;51.148;13.738;2022-11-18T04:03:41;12.45;;;6.82;;
25249;SDS011;13201;51.148;13.738;2022-11-18T04:06:09;8.82;;;4.97;;
25249;SDS011;13201;51.148;13.738;2022-11-18T04:08:50;12.55;;;6.50;;
25249;SDS011;13201;51.148;13.738;2022-11-18T04:11:25;16.42;;;7.15;;
25249;SDS011;13201;51.148;13.738;2022-11-18T04:14:13;14.68;;;7.72;;
25249;SDS011;13201;51.148;13.738;2022-11-18T04:16:41;15.90;;;8.15;;
25249;SDS011;13201;51.148;13.738;2022-11-18T04:19:07;15.60;;;7.95;;
25249;SDS011;13201;51.148;13.738;2022-11-18T04:21:33;15.63;;;7.55;;
25249;SDS011;13201;51.148;13.738;2022-11-18T04:23:58;14.48;;;6.93;;
25249;SDS011;13201;51.148;13.738;2022-11-18T04:26:24;14.35;;;7.47;;
25249;SDS011;13201;51.148;13.738;2022-11-18T04:28:50;14.85;;;7.22;;
25249;SDS011;13201;51.148;13.738;2022-11-18T04:31:16;14.20;;;6.70;;
25249;SDS011;13201;51.148;13.738;2022-11-18T04:33:41;14.30;;;6.97;;
25249;SDS011;13201;51.148;13.738;2022-11-18T04:36:07;13.57;;;6.88;;
25249;SDS011;13201;51.148;13.738;2022-11-18T04:38:33;13.38;;;6.75;;
25249;SDS011;13201;51.148;13.738;2022-11-18T04:40:58;12.43;;;6.55;;
25249;SDS011;13201;51.148;13.738;2022-11-18T04:43:24;15.23;;;7.22;;
25249;SDS011;13201;51.148;13.738;2022-11-18T04:45:50;14.95;;;7.05;;
25249;SDS011;13201;51.148;13.738;2022-11-18T04:48:15;12.63;;;6.80;;
25249;SDS011;13201;51.148;13.738;2022-11-18T04:50:41;12.95;;;6.70;;
25249;SDS011;13201;51.148;13.738;2022-11-18T04:53:07;13.60;;;6.40;;
25249;SDS011;13201;51.148;13.738;2022-11-18T04:55:34;14.45;;;6.53;;
25249;SDS011;13201;51.148;13.738;2022-11-18T04:58:00;13.77;;;6.60;;
25249;SDS011;13201;51.148;13.738;2022-11-18T05:00:26;13.23;;;6.35;;
25249;SDS011;13201;51.148;13.738;2022-11-18T05:02:51;10.80;;;6.43;;
25249;SDS011;13201;51.148;13.738;2022-11-18T05:05:17;13.95;;;6.75;;
25249;SDS011;13201;51.148;13.738;2022-11-18T05:07:43;12.35;;;6.43;;
25249;SDS011;13201;51.148;13.738;2022-11-18T05:10:09;16.70;;;6.40;;
25249;SDS011;13201;51.148;13.738;2022-11-18T05:12:34;14.57;;;7.25;;
25249;SDS011;13201;51.148;13.738;2022-11-18T05:15:12;13.13;;;6.65;;
25249;SDS011;13201;51.148;13.738;2022-11-18T05:17:38;14.70;;;6.90;;
25249;SDS011;13201;51.148;13.738;2022-11-18T05:20:04;13.75;;;6.57;;
25249;SDS011;13201;51.148;13.738;2022-11-18T05:22:30;15.27;;;7.00;;
25249;SDS011;13201;51.148;13.738;2022-11-18T05:24:56;17.73;;;7.53;;
25249;SDS011;13201;51.148;13.738;2022-11-18T05:27:21;14.43;;;6.78;;
25249;SDS011;13201;51.148;13.738;2022-11-18T05:29:47;14.38;;;6.93;;
25249;SDS011;13201;51.148;13.738;2022-11-18T05:32:13;15.27;;;7.32;;
25249;SDS011;13201;51.148;13.738;2022-11-18T05:34:39;16.33;;;7.47;;
25249;SDS011;13201;51.148;13.738;2022-11-18T05:37:06;15.80;;;7.72;;
25249;SDS011;13201;51.148;13.738;2022-11-18T05:39:31;15.70;;;7.22;;
25249;SDS011;13201;51.148;13.738;2022-11-18T05:41:57;15.57;;;7.22;;
25249;SDS011;13201;51.148;13.738;2022-11-18T05:44:42;14.60;;;6.90;;
25249;SDS011;13201;51.148;13.738;2022-11-18T05:47:08;16.60;;;8.00;;
25249;SDS011;13201;51.148;13.738;2022-11-18T05:49:34;15.30;;;7.25;;
25249;SDS011;13201;51.148;13.738;2022-11-18T05:51:59;14.48;;;7.00;;
25249;SDS011;13201;51.148;13.738;2022-11-18T05:54:25;13.85;;;6.65;;
25249;SDS011;13201;51.148;13.738;2022-11-18T05:56:52;16.55;;;6.65;;
25249;SDS011;13201;51.148;13.738;2022-11-18T05:59:18;16.10;;;6.97;;
25249;SDS011;13201;51.148;13.738;2022-11-18T06:01:48;13.02;;;6.93;;
25249;SDS011;13201;51.148;13.738;2022-11-18T06:07:01;13.52;;;6.63;;
25249;SDS011;13201;51.148;13.738;2022-11-18T06:09:41;13.32;;;6.88;;
25249;SDS011;13201;51.148;13.738;2022-11-18T06:12:11;13.25;;;6.75;;
25249;SDS011;13201;51.148;13.738;2022-11-18T06:14:45;11.77;;;6.30;;
25249;SDS011;13201;51.148;13.738;2022-11-18T06:17:15;14.23;;;6.55;;
25249;SDS011;13201;51.148;13.738;2022-11-18T06:19:44;14.20;;;6.75;;
25249;SDS011;13201;51.148;13.738;2022-11-18T06:22:10;13.02;;;6.53;;
25249;SDS011;13201;51.148;13.738;2022-11-18T06:24:37;12.60;;;6.87;;
25249;SDS011;13201;51.148;13.738;2022-11-18T06:27:03;14.00;;;6.97;;
25249;SDS011;13201;51.148;13.738;2022-11-18T06:29:28;13.13;;;6.35;;
25249;SDS011;13201;51.148;13.738;2022-11-18T06:31:55;14.30;;;6.38;;
25249;SDS011;13201;51.148;13.738;2022-11-18T06:34:21;13.95;;;6.80;;
25249;SDS011;13201;51.148;13.738;2022-11-18T06:36:47;14.57;;;6.75;;
25249;SDS011;13201;51.148;13.738;2022-11-18T06:39:13;16.08;;;6.93;;
25249;SDS011;13201;51.148;13.738;2022-11-18T06:41:38;14.23;;;6.72;;
25249;SDS011;13201;51.148;13.738;2022-11-18T06:44:04;13.57;;;6.50;;
25249;SDS011;13201;51.148;13.738;2022-11-18T06:46:30;11.65;;;6.57;;
25249;SDS011;13201;51.148;13.738;2022-11-18T06:49:15;13.18;;;6.13;;
25249;SDS011;13201;51.148;13.738;2022-11-18T06:51:40;15.55;;;6.75;;
25249;SDS011;13201;51.148;13.738;2022-11-18T06:54:06;14.35;;;6.53;;
25249;SDS011;13201;51.148;13.738;2022-11-18T06:56:33;16.30;;;7.18;;
25249;SDS011;13201;51.148;13.738;2022-11-18T06:58:59;13.57;;;6.90;;
25249;SDS011;13201;51.148;13.738;2022-11-18T07:01:26;14.90;;;7.13;;
25249;SDS011;13201;51.148;13.738;2022-11-18T07:03:53;15.32;;;7.20;;
25249;SDS011;13201;51.148;13.738;2022-11-18T07:06:20;13.10;;;6.57;;
25249;SDS011;13201;51.148;13.738;2022-11-18T07:08:47;13.63;;;6.55;;
25249;SDS011;13201;51.148;13.738;2022-11-18T07:11:15;11.65;;;6.22;;
25249;SDS011;13201;51.148;13.738;2022-11-18T07:13:42;13.77;;;6.22;;
25249;SDS011;13201;51.148;13.738;2022-11-18T07:16:11;12.55;;;6.60;;
25249;SDS011;13201;51.148;13.738;2022-11-18T07:18:42;12.93;;;6.28;;
25249;SDS011;13201;51.148;13.738;2022-11-18T07:23:35;13.48;;;6.07;;
25249;SDS011;13201;51.148;13.738;2022-11-18T07:26:01;11.75;;;6.03;;
25249;SDS011;13201;51.148;13.738;2022-11-18T07:28:27;10.73;;;4.72;;
25249;SDS011;13201;51.148;13.738;2022-11-18T07:31:03;11.70;;;5.97;;
25249;SDS011;13201;51.148;13.738;2022-11-18T07:33:43;12.40;;;5.60;;
25249;SDS011;13201;51.148;13.738;2022-11-18T07:38:37;15.27;;;6.40;;
25249;SDS011;13201;51.148;13.738;2022-11-18T07:41:06;15.27;;;7.05;;
25249;SDS011;13201;51.148;13.738;2022-11-18T07:43:40;16.52;;;8.38;;
25249;SDS011;13201;51.148;13.738;2022-11-18T07:48:40;12.48;;;6.18;;
25249;SDS011;13201;51.148;13.738;2022-11-18T07:51:07;16.60;;;7.50;;
25249;SDS011;13201;51.148;13.738;2022-11-18T07:53:33;14.45;;;6.93;;
25249;SDS011;13201;51.148;13.738;2022-11-18T07:56:00;14.63;;;6.38;;
25249;SDS011;13201;51.148;13.738;2022-11-18T07:58:26;10.68;;;5.70;;
25249;SDS011;13201;51.148;13.738;2022-11-18T08:00:52;13.23;;;5.60;;
25249;SDS011;13201;51.148;13.738;2022-11-18T08:03:17;12.00;;;5.85;;
25249;SDS011;13201;51.148;13.738;2022-11-18T08:05:43;13.35;;;6.68;;
25249;SDS011;13201;51.148;13.738;2022-11-18T08:08:09;12.43;;;6.10;;
25249;SDS011;13201;51.148;13.738;2022-11-18T08:10:37;11.18;;;6.00;;
25249;SDS011;13201;51.148;13.738;2022-11-18T08:13:03;15.90;;;6.30;;
25249;SDS011;13201;51.148;13.738;2022-11-18T08:15:29;11.05;;;5.97;;
25249;SDS011;13201;51.148;13.738;2022-11-18T08:17:54;12.40;;;6.38;;
25249;SDS011;13201;51.148;13.738;2022-11-18T08:20:20;11.90;;;5.80;;
25249;SDS011;13201;51.148;13.738;2022-11-18T08:22:45;14.32;;;6.90;;
25249;SDS011;13201;51.148;13.738;2022-11-18T08:25:11;15.55;;;6.35;;
25249;SDS011;13201;51.148;13.738;2022-11-18T08:27:37;13.43;;;6.15;;
25249;SDS011;13201;51.148;13.738;2022-11-18T08:30:02;13.05;;;6.10;;
25249;SDS011;13201;51.148;13.738;2022-11-18T08:32:28;13.00;;;6.18;;
25249;SDS011;13201;51.148;13.738;2022-11-18T08:34:54;16.15;;;6.93;;
25249;SDS011;13201;51.148;13.738;2022-11-18T08:37:20;15.27;;;6.47;;
25249;SDS011;13201;51.148;13.738;2022-11-18T08:39:45;15.93;;;7.25;;
25249;SDS011;13201;51.148;13.738;2022-11-18T08:42:11;14.90;;;6.60;;
25249;SDS011;13201;51.148;13.738;2022-11-18T08:44:37;14.88;;;6.68;;
25249;SDS011;13201;51.148;13.738;2022-11-18T08:47:02;14.27;;;6.40;;
25249;SDS011;13201;51.148;13.738;2022-11-18T08:49:28;12.20;;;6.50;;
25249;SDS011;13201;51.148;13.738;2022-11-18T08:51:54;15.07;;;6.97;;
25249;SDS011;13201;51.148;13.738;2022-11-18T08:54:19;15.07;;;7.10;;
25249;SDS011;13201;51.148;13.738;2022-11-18T08:56:45;13.77;;;6.22;;
25249;SDS011;13201;51.148;13.738;2022-11-18T08:59:11;13.35;;;6.47;;
25249;SDS011;13201;51.148;13.738;2022-11-18T09:01:37;12.87;;;6.97;;
25249;SDS011;13201;51.148;13.738;2022-11-18T09:04:05;14.85;;;7.25;;
25249;SDS011;13201;51.148;13.738;2022-11-18T09:06:31;15.27;;;6.83;;
25249;SDS011;13201;51.148;13.738;2022-11-18T09:08:58;15.95;;;7.20;;
25249;SDS011;13201;51.148;13.738;2022-11-18T09:11:25;22.33;;;10.23;;
25249;SDS011;13201;51.148;13.738;2022-11-18T09:13:55;17.63;;;7.35;;
25249;SDS011;13201;51.148;13.738;2022-11-18T09:16:26;16.13;;;7.55;;
25249;SDS011;13201;51.148;13.738;2022-11-18T09:18:53;16.25;;;7.45;;
25249;SDS011;13201;51.148;13.738;2022-11-18T09:21:19;18.42;;;8.25;;
25249;SDS011;13201;51.148;13.738;2022-11-18T09:23:45;16.58;;;8.10;;
25249;SDS011;13201;51.148;13.738;2022-11-18T09:26:12;16.38;;;7.93;;
25249;SDS011;13201;51.148;13.738;2022-11-18T09:28:41;17.48;;;7.80;;
25249;SDS011;13201;51.148;13.738;2022-11-18T09:31:09;17.60;;;8.07;;
25249;SDS011;13201;51.148;13.738;2022-11-18T09:33:36;18.02;;;8.18;;
25249;SDS011;13201;51.148;13.738;2022-11-18T09:36:03;17.73;;;8.50;;
25249;SDS011;13201;51.148;13.738;2022-11-18T09:38:30;17.90;;;8.20;;
25249;SDS011;13201;51.148;13.738;2022-11-18T09:49:47;15.52;;;8.00;;
25249;SDS011;13201;51.148;13.738;2022-11-18T09:51:55;21.35;;;8.82;;
25249;SDS011;13201;51.148;13.738;2022-11-18T09:54:26;17.65;;;7.97;;
25249;SDS011;13201;51.148;13.738;2022-11-18T09:56:57;17.65;;;8.38;;
25249;SDS011;13201;51.148;13.738;2022-11-18T09:59:25;14.77;;;8.05;;
25249;SDS011;13201;51.148;13.738;2022-11-18T10:01:55;19.40;;;8.70;;
25249;SDS011;13201;51.148;13.738;2022-11-18T10:04:42;16.05;;;8.00;;
25249;SDS011;13201;51.148;13.738;2022-11-18T10:10:20;19.48;;;8.30;;
25249;SDS011;13201;51.148;13.738;2022-11-18T10:12:56;17.83;;;8.07;;
25249;SDS011;13201;51.148;13.738;2022-11-18T10:15:35;15.98;;;7.70;;
25249;SDS011;13201;51.148;13.738;2022-11-18T10:23:49;15.85;;;6.85;;
25249;SDS011;13201;51.148;13.738;2022-11-18T10:26:32;11.38;;;6.68;;
25249;SDS011;13201;51.148;13.738;2022-11-18T10:29:00;13.18;;;6.30;;
25249;SDS011;13201;51.148;13.738;2022-11-18T10:31:26;13.40;;;6.53;;
25249;SDS011;13201;51.148;13.738;2022-11-18T10:33:59;14.55;;;6.32;;
25249;SDS011;13201;51.148;13.738;2022-11-18T10:36:26;13.57;;;6.38;;
25249;SDS011;13201;51.148;13.738;2022-11-18T10:39:08;11.27;;;6.03;;
25249;SDS011;13201;51.148;13.738;2022-11-18T10:41:40;13.60;;;6.03;;
25249;SDS011;13201;51.148;13.738;2022-11-18T10:44:28;12.87;;;6.47;;
25249;SDS011;13201;51.148;13.738;2022-11-18T10:49:49;12.07;;;6.50;;
25249;SDS011;13201;51.148;13.738;2022-11-18T10:54:41;11.37;;;6.10;;
25249;SDS011;13201;51.148;13.738;2022-11-18T10:59:50;16.05;;;7.30;;
25249;SDS011;13201;51.148;13.738;2022-11-18T11:02:30;14.82;;;6.63;;
25249;SDS011;13201;51.148;13.738;2022-11-18T11:04:59;17.23;;;7.25;;
25249;SDS011;13201;51.148;13.738;2022-11-18T11:12:38;14.07;;;7.18;;
25249;SDS011;13201;51.148;13.738;2022-11-18T11:15:18;17.10;;;8.10;;
25249;SDS011;13201;51.148;13.738;2022-11-18T11:17:58;17.25;;;8.13;;
25249;SDS011;13201;51.148;13.738;2022-11-18T11:21:09;16.85;;;7.93;;
25249;SDS011;13201;51.148;13.738;2022-11-18T11:23:36;20.17;;;10.07;;
25249;SDS011;13201;51.148;13.738;2022-11-18T11:26:03;16.67;;;8.52;;
25249;SDS011;13201;51.148;13.738;2022-11-18T11:28:49;15.73;;;8.40;;
25249;SDS011;13201;51.148;13.738;2022-11-18T11:37:03;19.27;;;9.20;;
25249;SDS011;13201;51.148;13.738;2022-11-18T11:47:46;17.90;;;8.30;;
25249;SDS011;13201;51.148;13.738;2022-11-18T12:06:54;16.25;;;9.27;;
25249;SDS011;13201;51.148;13.738;2022-11-18T12:12:00;18.48;;;8.88;;
25249;SDS011;13201;51.148;13.738;2022-11-18T12:14:59;16.10;;;7.90;;
25249;SDS011;13201;51.148;13.738;2022-11-18T12:17:51;19.67;;;8.93;;
25249;SDS011;13201;51.148;13.738;2022-11-18T12:26:09;17.98;;;9.00;;
25249;SDS011;13201;51.148;13.738;2022-11-18T12:28:39;17.33;;;9.23;;
25249;SDS011;13201;51.148;13.738;2022-11-18T12:33:53;23.88;;;10.95;;
25249;SDS011;13201;51.148;13.738;2022-11-18T12:41:51;27.25;;;11.85;;
25249;SDS011;13201;51.148;13.738;2022-11-18T12:44:46;25.23;;;11.43;;
25249;SDS011;13201;51.148;13.738;2022-11-18T12:47:14;24.02;;;11.35;;
25249;SDS011;13201;51.148;13.738;2022-11-18T12:55:02;23.25;;;11.13;;
25249;SDS011;13201;51.148;13.738;2022-11-18T12:57:35;22.02;;;10.70;;
25249;SDS011;13201;51.148;13.738;2022-11-18T13:00:14;24.13;;;10.80;;
25249;SDS011;13201;51.148;13.738;2022-11-18T13:02:41;23.55;;;10.68;;
25249;SDS011;13201;51.148;13.738;2022-11-18T13:05:20;25.63;;;11.60;;
25249;SDS011;13201;51.148;13.738;2022-11-18T13:13:31;22.48;;;10.80;;
25249;SDS011;13201;51.148;13.738;2022-11-18T13:16:01;25.20;;;11.13;;
25249;SDS011;13201;51.148;13.738;2022-11-18T13:18:59;21.92;;;10.45;;
25249;SDS011;13201;51.148;13.738;2022-11-18T13:21:26;25.50;;;11.32;;
25249;SDS011;13201;51.148;13.738;2022-11-18T13:24:12;20.95;;;10.15;;
25249;SDS011;13201;51.148;13.738;2022-11-18T13:26:43;23.10;;;10.32;;
25249;SDS011;13201;51.148;13.738;2022-11-18T13:34:51;21.53;;;9.73;;
25249;SDS011;13201;51.148;13.738;2022-11-18T13:37:47;21.58;;;10.45;;
25249;SDS011;13201;51.148;13.738;2022-11-18T13:40:27;21.10;;;10.07;;
25249;SDS011;13201;51.148;13.738;2022-11-18T13:42:54;19.60;;;9.98;;
25249;SDS011;13201;51.148;13.738;2022-11-18T13:45:21;19.93;;;9.70;;
25249;SDS011;13201;51.148;13.738;2022-11-18T13:50:32;19.73;;;9.25;;
25249;SDS011;13201;51.148;13.738;2022-11-18T13:56:29;19.08;;;10.02;;
25249;SDS011;13201;51.148;13.738;2022-11-18T14:03:47;22.67;;;10.60;;
25249;SDS011;13201;51.148;13.738;2022-11-18T14:06:29;18.98;;;9.20;;
25249;SDS011;13201;51.148;13.738;2022-11-18T14:11:40;20.35;;;9.82;;
25249;SDS011;13201;51.148;13.738;2022-11-18T14:14:08;20.60;;;9.70;;
25249;SDS011;13201;51.148;13.738;2022-11-18T14:16:36;19.60;;;10.00;;
25249;SDS011;13201;51.148;13.738;2022-11-18T14:19:03;22.13;;;10.82;;
25249;SDS011;13201;51.148;13.738;2022-11-18T14:23:56;22.08;;;10.48;;
25249;SDS011;13201;51.148;13.738;2022-11-18T14:26:27;21.67;;;10.48;;
25249;SDS011;13201;51.148;13.738;2022-11-18T14:29:01;22.85;;;10.18;;
25249;SDS011;13201;51.148;13.738;2022-11-18T14:31:41;19.25;;;10.25;;
25249;SDS011;13201;51.148;13.738;2022-11-18T14:34:17;24.57;;;11.47;;
25249;SDS011;13201;51.148;13.738;2022-11-18T14:36:49;18.33;;;10.13;;
25249;SDS011;13201;51.148;13.738;2022-11-18T14:39:26;20.88;;;10.35;;
25249;SDS011;13201;51.148;13.738;2022-11-18T14:41:56;23.10;;;11.32;;
25249;SDS011;13201;51.148;13.738;2022-11-18T14:44:23;20.02;;;10.90;;
25249;SDS011;13201;51.148;13.738;2022-11-18T14:46:50;23.00;;;11.43;;
25249;SDS011;13201;51.148;13.738;2022-11-18T14:49:24;23.30;;;11.48;;
25249;SDS011;13201;51.148;13.738;2022-11-18T14:51:51;19.58;;;10.20;;
25249;SDS011;13201;51.148;13.738;2022-11-18T14:54:19;17.83;;;9.75;;
25249;SDS011;13201;51.148;13.738;2022-11-18T14:56:46;43.47;;;18.92;;
25249;SDS011;13201;51.148;13.738;2022-11-18T14:59:14;31.35;;;13.68;;
25249;SDS011;13201;51.148;13.738;2022-11-18T15:01:41;23.73;;;11.25;;
25249;SDS011;13201;51.148;13.738;2022-11-18T15:04:08;25.08;;;11.50;;
25249;SDS011;13201;51.148;13.738;2022-11-18T15:06:34;19.37;;;10.90;;
25249;SDS011;13201;51.148;13.738;2022-11-18T15:09:00;23.23;;;10.40;;
25249;SDS011;13201;51.148;13.738;2022-11-18T15:11:26;19.20;;;9.30;;
25249;SDS011;13201;51.148;13.738;2022-11-18T15:13:52;23.25;;;11.52;;
25249;SDS011;13201;51.148;13.738;2022-11-18T15:16:22;25.95;;;10.93;;
25249;SDS011;13201;51.148;13.738;2022-11-18T15:18:50;23.95;;;10.88;;
25249;SDS011;13201;51.148;13.738;2022-11-18T15:21:18;26.30;;;11.70;;
25249;SDS011;13201;51.148;13.738;2022-11-18T15:23:44;28.30;;;11.43;;
25249;SDS011;13201;51.148;13.738;2022-11-18T15:26:55;25.40;;;11.23;;
25249;SDS011;13201;51.148;13.738;2022-11-18T15:29:01;23.65;;;10.85;;
25249;SDS011;13201;51.148;13.738;2022-11-18T15:31:27;25.70;;;11.93;;
25249;SDS011;13201;51.148;13.738;2022-11-18T15:33:52;26.15;;;11.85;;
25249;SDS011;13201;51.148;13.738;2022-11-18T15:36:22;23.27;;;11.30;;
25249;SDS011;13201;51.148;13.738;2022-11-18T15:38:50;25.13;;;11.70;;
25249;SDS011;13201;51.148;13.738;2022-11-18T15:43:45;25.60;;;11.75;;
25249;SDS011;13201;51.148;13.738;2022-11-18T15:46:11;23.03;;;10.57;;
25249;SDS011;13201;51.148;13.738;2022-11-18T15:48:37;23.73;;;11.77;;
25249;SDS011;13201;51.148;13.738;2022-11-18T15:51:03;27.48;;;11.52;;
25249;SDS011;13201;51.148;13.738;2022-11-18T15:53:29;29.50;;;10.73;;
25249;SDS011;13201;51.148;13.738;2022-11-18T16:01:49;23.63;;;10.15;;
25249;SDS011;13201;51.148;13.738;2022-11-18T16:04:15;24.85;;;11.10;;
25249;SDS011;13201;51.148;13.738;2022-11-18T16:06:42;28.77;;;12.20;;
25249;SDS011;13201;51.148;13.738;2022-11-18T16:09:08;29.17;;;11.25;;
25249;SDS011;13201;51.148;13.738;2022-11-18T16:14:20;26.33;;;11.43;;
25249;SDS011;13201;51.148;13.738;2022-11-18T16:16:47;21.63;;;10.93;;
25249;SDS011;13201;51.148;13.738;2022-11-18T16:19:18;24.45;;;10.90;;
25249;SDS011;13201;51.148;13.738;2022-11-18T16:21:47;26.67;;;10.57;;
25249;SDS011;13201;51.148;13.738;2022-11-18T16:24:22;28.80;;;10.70;;
25249;SDS011;13201;51.148;13.738;2022-11-18T16:26:50;22.90;;;10.63;;
25249;SDS011;13201;51.148;13.738;2022-11-18T16:29:16;25.63;;;11.10;;
25249;SDS011;13201;51.148;13.738;2022-11-18T16:31:42;25.33;;;10.65;;
25249;SDS011;13201;51.148;13.738;2022-11-18T16:36:44;27.15;;;11.73;;
25249;SDS011;13201;51.148;13.738;2022-11-18T16:39:12;22.75;;;9.65;;
25249;SDS011;13201;51.148;13.738;2022-11-18T16:41:42;23.65;;;9.40;;
25249;SDS011;13201;51.148;13.738;2022-11-18T16:44:09;20.13;;;8.93;;
25249;SDS011;13201;51.148;13.738;2022-11-18T16:46:37;19.58;;;8.98;;
25249;SDS011;13201;51.148;13.738;2022-11-18T16:49:05;20.52;;;9.52;;
25249;SDS011;13201;51.148;13.738;2022-11-18T16:51:32;17.92;;;8.60;;
25249;SDS011;13201;51.148;13.738;2022-11-18T16:53:59;19.63;;;8.45;;
25249;SDS011;13201;51.148;13.738;2022-11-18T16:56:30;17.77;;;8.65;;
25249;SDS011;13201;51.148;13.738;2022-11-18T17:01:23;21.15;;;8.48;;
25249;SDS011;13201;51.148;13.738;2022-11-18T17:03:51;18.70;;;8.52;;
25249;SDS011;13201;51.148;13.738;2022-11-18T17:06:17;18.48;;;8.13;;
25249;SDS011;13201;51.148;13.738;2022-11-18T17:08:44;22.15;;;8.27;;
25249;SDS011;13201;51.148;13.738;2022-11-18T17:11:10;17.42;;;8.05;;
25249;SDS011;13201;51.148;13.738;2022-11-18T17:13:36;13.70;;;6.70;;
25249;SDS011;13201;51.148;13.738;2022-11-18T17:16:06;18.55;;;7.50;;
25249;SDS011;13201;51.148;13.738;2022-11-18T17:18:34;15.60;;;7.38;;
25249;SDS011;13201;51.148;13.738;2022-11-18T17:21:03;17.10;;;7.90;;
25249;SDS011;13201;51.148;13.738;2022-11-18T17:23:30;19.55;;;8.38;;
25249;SDS011;13201;51.148;13.738;2022-11-18T17:25:56;19.63;;;7.50;;
25249;SDS011;13201;51.148;13.738;2022-11-18T17:28:21;14.73;;;6.60;;
25249;SDS011;13201;51.148;13.738;2022-11-18T17:30:47;13.63;;;7.20;;
25249;SDS011;13201;51.148;13.738;2022-11-18T17:33:13;13.93;;;6.35;;
25249;SDS011;13201;51.148;13.738;2022-11-18T17:35:38;13.73;;;5.23;;
25249;SDS011;13201;51.148;13.738;2022-11-18T17:38:04;17.08;;;8.18;;
25249;SDS011;13201;51.148;13.738;2022-11-18T17:40:29;14.10;;;6.53;;
25249;SDS011;13201;51.148;13.738;2022-11-18T17:42:55;14.43;;;5.90;;
25249;SDS011;13201;51.148;13.738;2022-11-18T17:45:21;15.90;;;6.38;;